Time;durP1;ratioP1;P1;durP2;ratioP2;P2;SDS_P1;SDS_P2;PMS_P1;PMS_P2;Temp;Humidity;BMP_temperature;BMP_pressure;BME280_temperature;BME280_humidity;BME280_pressure;Samples;Min_cycle;Max_cycle;Signal;HPM_P1;HPM_P2
2021/12/20 00:00:49;;;;;;;10.48;5.68;;;;;;;8.84;60.88;98064.97;4966132;28;20225;-85
2021/12/20 00:03:14;;;;;;;10.85;5.88;;;;;;;8.83;61.29;98061.59;4952298;28;20295;-85
2021/12/20 00:05:40;;;;;;;9.50;6.25;;;;;;;8.75;61.05;98062.63;4999126;28;20172;-85
2021/12/20 00:08:06;;;;;;;9.80;6.20;;;;;;;8.91;61.16;98057.94;4965048;28;20641;-85
2021/12/20 00:10:31;;;;;;;11.88;6.07;;;;;;;8.88;60.49;98046.19;5000993;28;20280;-85
2021/12/20 00:12:57;;;;;;;11.18;6.40;;;;;;;8.84;60.90;98050.19;4968095;28;20704;-85
2021/12/20 00:15:22;;;;;;;10.32;5.82;;;;;;;8.87;61.05;98048.97;4961356;28;20227;-85
2021/12/20 00:17:48;;;;;;;9.48;6.05;;;;;;;8.86;61.10;98047.38;4961282;28;20714;-85
2021/12/20 00:20:13;;;;;;;9.50;5.55;;;;;;;8.87;61.28;98046.38;5007726;28;20205;-85
2021/12/20 00:22:39;;;;;;;10.57;5.40;;;;;;;8.90;60.82;98043.38;4966067;28;20274;-85
2021/12/20 00:25:06;;;;;;;10.52;5.97;;;;;;;8.88;60.71;98040.97;4960519;28;20179;-85
2021/12/20 00:27:31;;;;;;;8.82;5.85;;;;;;;8.87;60.90;98039.38;4981457;28;20732;-85
2021/12/20 00:29:56;;;;;;;8.65;6.05;;;;;;;8.86;60.65;98037.00;4980948;28;20346;-85
2021/12/20 00:32:22;;;;;;;11.05;6.20;;;;;;;8.91;60.99;98045.75;4966787;28;20181;-85
2021/12/20 00:34:47;;;;;;;10.18;5.68;;;;;;;8.88;60.85;98040.19;4967284;28;20193;-85
2021/12/20 00:43:01;;;;;;;7.75;4.63;;;;;;;8.81;61.08;98033.25;4918876;28;20226;-85
2021/12/20 00:45:31;;;;;;;9.82;5.32;;;;;;;8.72;61.01;98034.50;4917838;28;20247;-85
2021/12/20 00:47:56;;;;;;;8.32;4.78;;;;;;;8.84;61.34;98031.22;4942628;28;20193;-85
2021/12/20 00:50:23;;;;;;;8.00;4.93;;;;;;;8.83;61.12;98032.25;4912397;28;20230;-85
2021/12/20 00:52:49;;;;;;;9.60;5.80;;;;;;;8.86;61.23;98024.00;4911177;28;20162;-85
2021/12/20 00:55:16;;;;;;;8.25;4.93;;;;;;;8.83;61.30;98027.06;4930567;28;20547;-85
2021/12/20 00:57:46;;;;;;;7.97;4.97;;;;;;;8.75;61.13;98028.09;4916544;28;20211;-85
2021/12/20 01:00:13;;;;;;;8.93;4.50;;;;;;;8.87;61.14;98033.41;4932854;28;20743;-85
2021/12/20 01:02:39;;;;;;;9.40;4.88;;;;;;;8.93;60.38;98009.19;4934228;28;20170;-85
2021/12/20 01:05:04;;;;;;;8.48;5.05;;;;;;;8.92;60.44;98010.19;4927152;28;20306;-85
2021/12/20 01:07:30;;;;;;;9.55;5.35;;;;;;;8.86;60.91;98016.22;4939145;28;20602;-85
2021/12/20 01:09:59;;;;;;;9.38;5.30;;;;;;;8.84;61.15;98026.03;4916084;28;20385;-85
2021/12/20 01:12:29;;;;;;;7.47;4.03;;;;;;;8.83;60.94;98027.06;4938820;28;20269;-85
2021/12/20 01:14:59;;;;;;;7.53;4.75;;;;;;;8.74;61.21;98023.91;4932903;28;20197;-85
2021/12/20 01:17:25;;;;;;;9.57;5.25;;;;;;;8.85;61.14;98010.25;4962854;28;20396;-85
2021/12/20 01:19:50;;;;;;;7.90;4.60;;;;;;;8.81;60.80;98003.88;4984985;28;20269;-85
2021/12/20 01:22:16;;;;;;;9.43;5.65;;;;;;;8.87;60.77;98010.03;4978690;28;20108;-85
2021/12/20 01:24:41;;;;;;;7.90;4.78;;;;;;;8.86;60.43;98016.22;4982974;28;20355;-85
2021/12/20 01:27:07;;;;;;;8.93;5.22;;;;;;;8.80;60.56;98013.47;4982788;28;20240;-85
2021/12/20 01:29:32;;;;;;;8.30;4.68;;;;;;;8.89;60.40;98005.41;4966371;28;20697;-85
2021/12/20 01:31:57;;;;;;;10.55;5.60;;;;;;;8.81;60.52;98007.28;4981885;28;20202;-85
2021/12/20 01:34:23;;;;;;;10.90;5.57;;;;;;;8.82;60.36;98000.28;4957993;28;20442;-85
2021/12/20 01:36:48;;;;;;;8.93;5.57;;;;;;;8.75;61.18;98018.50;4964043;28;20277;-85
2021/12/20 01:39:14;;;;;;;10.45;5.72;;;;;;;8.73;60.95;98009.34;4964663;28;20178;-85
2021/12/20 01:41:41;;;;;;;9.65;5.28;;;;;;;8.66;61.24;98011.19;4964619;28;20206;-85
2021/12/20 01:44:07;;;;;;;7.28;4.30;;;;;;;8.75;61.36;98010.69;4956165;28;20171;-85
2021/12/20 01:46:33;;;;;;;7.93;4.50;;;;;;;8.81;61.28;98006.47;4954204;28;20345;-85
2021/12/20 01:49:00;;;;;;;8.57;4.38;;;;;;;8.78;61.41;98015.47;4984590;28;20751;-85
2021/12/20 01:51:49;;;;;;;10.48;4.82;;;;;;;8.75;61.33;98009.91;4981039;28;20180;-85
2021/12/20 01:54:14;;;;;;;6.90;4.07;;;;;;;8.78;60.79;98002.50;4994747;28;20314;-85
2021/12/20 01:56:42;;;;;;;6.25;3.78;;;;;;;8.72;60.79;98003.34;4965848;28;20818;-85
2021/12/20 01:59:09;;;;;;;7.68;4.13;;;;;;;8.83;61.09;98012.25;4979324;28;20201;-85
2021/12/20 02:01:34;;;;;;;8.82;4.82;;;;;;;8.78;60.95;98005.09;4978236;28;20253;-85
2021/12/20 02:04:04;;;;;;;9.05;5.15;;;;;;;8.72;60.97;97999.94;4985920;28;20189;-85
2021/12/20 02:06:37;;;;;;;6.70;4.43;;;;;;;8.74;61.25;98014.31;4958789;28;20190;-85
2021/12/20 02:09:11;;;;;;;7.28;3.80;;;;;;;8.53;61.68;98001.69;4960949;28;20281;-85
2021/12/20 02:11:38;;;;;;;6.63;3.80;;;;;;;8.65;61.45;98010.38;4983598;28;20293;-84
2021/12/20 02:14:05;;;;;;;8.40;4.53;;;;;;;8.61;61.23;98015.19;4984888;28;20190;-85
2021/12/20 02:16:30;;;;;;;7.28;3.95;;;;;;;8.65;61.46;97999.22;5000552;28;20711;-85
2021/12/20 02:18:56;;;;;;;7.10;3.97;;;;;;;8.75;60.46;97995.13;4960889;28;20290;-85
2021/12/20 02:21:22;;;;;;;5.28;3.40;;;;;;;8.85;59.97;97993.88;4979342;28;20573;-85
2021/12/20 02:23:48;;;;;;;6.22;3.45;;;;;;;8.75;60.16;97989.94;4966859;28;20201;-85
2021/12/20 02:26:17;;;;;;;6.30;3.97;;;;;;;8.85;59.74;97999.84;4990672;28;20777;-85
2021/12/20 02:28:46;;;;;;;5.88;3.03;;;;;;;8.83;59.56;98001.09;4990135;28;20171;-85
2021/12/20 02:38:58;;;;;;;7.07;3.90;;;;;;;8.63;60.71;97978.66;5001433;28;20614;-85
2021/12/20 02:41:29;;;;;;;5.45;3.38;;;;;;;8.66;60.61;97986.03;4967804;28;20621;-85
2021/12/20 02:43:57;;;;;;;4.95;3.00;;;;;;;8.68;60.73;97981.41;4970565;28;20271;-85
2021/12/20 02:49:10;;;;;;;6.57;3.38;;;;;;;8.70;60.55;97987.19;4998934;28;20713;-85
2021/12/20 02:51:37;;;;;;;6.85;4.07;;;;;;;8.71;60.91;97986.19;4978587;28;20277;-85
2021/12/20 02:54:04;;;;;;;6.97;3.80;;;;;;;8.69;60.46;97984.78;4977886;28;20439;-85
2021/12/20 02:56:30;;;;;;;6.28;4.00;;;;;;;8.59;60.92;97965.31;4986446;28;20160;-85
2021/12/20 02:58:55;;;;;;;5.78;3.50;;;;;;;8.77;60.77;97974.97;4966475;28;20233;-85
2021/12/20 03:01:21;;;;;;;7.63;4.60;;;;;;;8.70;60.81;97979.38;4966125;28;20253;-85
2021/12/20 03:03:48;;;;;;;6.18;3.78;;;;;;;8.59;61.18;97973.09;4957954;28;20199;-85
2021/12/20 03:06:22;;;;;;;5.70;3.35;;;;;;;8.55;60.87;97973.72;4998251;28;20274;-85
2021/12/20 03:08:51;;;;;;;5.57;3.23;;;;;;;8.59;60.65;97987.88;5007660;28;20247;-84
2021/12/20 03:11:18;;;;;;;5.68;3.38;;;;;;;8.71;60.30;97981.00;4974831;28;20487;-85
2021/12/20 03:13:46;;;;;;;5.15;3.25;;;;;;;8.63;60.47;97973.47;4971170;28;20186;-85
2021/12/20 03:16:11;;;;;;;5.65;3.40;;;;;;;8.68;60.40;97984.00;4985210;28;20177;-85
2021/12/20 03:18:37;;;;;;;5.13;3.28;;;;;;;8.68;61.01;97983.22;4962894;28;20214;-85
2021/12/20 03:21:02;;;;;;;6.10;3.42;;;;;;;8.72;60.79;97974.00;4983196;28;20109;-85
2021/12/20 03:23:27;;;;;;;6.30;3.53;;;;;;;8.72;60.82;97974.81;4981470;28;20177;-85
2021/12/20 03:25:53;;;;;;;5.00;2.80;;;;;;;8.70;61.03;97976.78;4969866;28;20193;-85
2021/12/20 03:28:18;;;;;;;6.45;4.00;;;;;;;8.63;61.12;97976.84;5004087;28;20281;-85
2021/12/20 03:30:44;;;;;;;7.57;4.20;;;;;;;8.74;60.70;97977.16;5003256;28;20231;-85
2021/12/20 03:33:10;;;;;;;6.50;3.55;;;;;;;8.72;61.02;97974.00;4972895;28;20650;-85
2021/12/20 03:35:35;;;;;;;6.60;3.95;;;;;;;8.68;60.67;97975.44;4975772;28;20579;-85
2021/12/20 03:38:01;;;;;;;5.75;3.60;;;;;;;8.63;60.78;97965.66;4982781;28;20185;-85
2021/12/20 03:40:26;;;;;;;6.20;3.20;;;;;;;8.68;60.82;97973.63;4968313;28;20220;-85
2021/12/20 03:42:52;;;;;;;6.45;3.70;;;;;;;8.65;60.53;97981.81;4995006;28;20272;-84
2021/12/20 03:45:17;;;;;;;7.18;3.63;;;;;;;8.68;60.63;97978.81;4993192;28;20274;-84
2021/12/20 03:47:43;;;;;;;7.40;3.72;;;;;;;8.64;60.85;97977.66;4975491;28;20430;-85
2021/12/20 03:50:10;;;;;;;6.35;3.58;;;;;;;8.74;60.03;97967.59;4968660;28;20672;-85
2021/12/20 03:52:38;;;;;;;5.55;3.63;;;;;;;8.60;60.46;97971.28;4984490;28;20166;-85
2021/12/20 03:55:08;;;;;;;6.07;3.53;;;;;;;8.74;59.26;97966.78;4981664;28;20200;-85
2021/12/20 03:57:34;;;;;;;6.53;3.13;;;;;;;8.84;59.74;97966.31;5002115;28;20192;-85
2021/12/20 04:00:00;;;;;;;5.13;3.35;;;;;;;8.80;60.01;97976.31;4987788;28;20162;-85
2021/12/20 04:02:26;;;;;;;5.78;3.78;;;;;;;8.79;60.26;97962.56;4966382;28;20267;-85
2021/12/20 04:04:52;;;;;;;6.80;4.28;;;;;;;8.76;60.12;97960.38;5003954;28;20197;-85
2021/12/20 04:07:17;;;;;;;6.35;3.90;;;;;;;8.74;60.17;97951.19;4998357;28;20194;-84
2021/12/20 04:09:43;;;;;;;6.68;3.45;;;;;;;8.84;59.71;97961.09;4987822;28;20640;-85
2021/12/20 04:12:09;;;;;;;5.18;3.00;;;;;;;8.87;59.85;97973.66;4971553;28;20655;-85
2021/12/20 04:14:34;;;;;;;5.72;3.25;;;;;;;8.81;59.35;97963.13;4970167;28;20279;-85
2021/12/20 04:17:00;;;;;;;5.07;2.88;;;;;;;8.81;60.00;97965.72;4981478;28;20658;-85
2021/12/20 04:19:25;;;;;;;5.50;3.10;;;;;;;8.77;60.11;97968.94;4996204;28;20276;-85
2021/12/20 04:21:50;;;;;;;5.97;3.10;;;;;;;8.55;59.98;97953.75;4997179;28;20194;-85
2021/12/20 04:24:16;;;;;;;5.07;3.22;;;;;;;8.76;59.47;97959.59;4967643;28;20635;-84
2021/12/20 04:26:41;;;;;;;5.93;3.28;;;;;;;8.74;59.56;97966.78;5000650;28;20150;-85
2021/12/20 04:29:07;;;;;;;5.65;2.85;;;;;;;8.78;59.42;97958.34;4998993;28;20245;-85
2021/12/20 04:31:35;;;;;;;7.10;3.13;;;;;;;8.67;59.13;97966.84;5003817;28;20397;-85
2021/12/20 04:34:00;;;;;;;5.68;2.83;;;;;;;8.64;59.29;97967.28;4966771;28;20268;-84
2021/12/20 04:36:26;;;;;;;6.32;3.65;;;;;;;8.67;58.30;97960.84;4984538;28;20186;-85
2021/12/20 04:38:51;;;;;;;6.35;3.00;;;;;;;8.60;58.99;97945.31;4987641;28;20185;-84
2021/12/20 04:41:17;;;;;;;6.05;3.60;;;;;;;8.49;59.07;97956.41;4953097;28;20193;-85
2021/12/20 04:43:42;;;;;;;5.10;2.88;;;;;;;8.53;59.83;97960.94;4953459;28;20360;-85
2021/12/20 04:46:08;;;;;;;5.35;3.30;;;;;;;8.48;59.77;97957.41;4964675;28;20292;-85
2021/12/20 04:48:34;;;;;;;7.13;3.13;;;;;;;8.55;60.16;97953.75;4981910;28;20200;-85
2021/12/20 04:50:59;;;;;;;5.65;2.92;;;;;;;8.52;60.01;97961.19;4990793;28;20184;-85
2021/12/20 04:53:24;;;;;;;6.65;3.33;;;;;;;8.52;60.32;97969.75;4981926;28;20267;-85
2021/12/20 04:55:50;;;;;;;6.45;3.17;;;;;;;8.51;60.59;97960.38;4962745;28;20265;-85
2021/12/20 04:58:15;;;;;;;7.78;3.05;;;;;;;8.47;59.99;97964.41;4980017;28;20163;-85
2021/12/20 05:00:41;;;;;;;5.63;3.10;;;;;;;8.59;60.19;97967.09;4987395;28;20514;-85
2021/12/20 05:03:08;;;;;;;5.53;2.90;;;;;;;8.53;60.14;97963.53;4962744;28;20582;-85
2021/12/20 05:05:34;;;;;;;4.40;2.80;;;;;;;8.55;60.11;97969.34;4952641;28;20180;-85
2021/12/20 05:08:00;;;;;;;5.63;3.45;;;;;;;8.54;60.26;97961.75;4981274;28;20270;-85
2021/12/20 05:10:37;;;;;;;6.65;3.33;;;;;;;8.55;60.01;97958.94;4964397;28;20637;-85
2021/12/20 05:13:06;;;;;;;5.43;2.92;;;;;;;8.43;59.78;97966.63;4990444;28;20369;-85
2021/12/20 05:15:32;;;;;;;5.78;3.25;;;;;;;8.50;59.48;97965.75;4996433;28;20573;-85
2021/12/20 05:17:58;;;;;;;4.90;2.83;;;;;;;8.51;59.67;97973.34;4946812;28;20696;-85
2021/12/20 05:20:24;;;;;;;7.18;3.13;;;;;;;8.54;59.99;97972.13;4949246;28;20105;-85
2021/12/20 05:22:50;;;;;;;4.65;3.05;;;;;;;8.56;59.67;97965.72;4971794;28;20618;-85
2021/12/20 05:25:16;;;;;;;6.38;3.50;;;;;;;8.48;59.52;97965.97;4945819;28;20790;-85
2021/12/20 05:27:41;;;;;;;6.78;3.50;;;;;;;8.50;60.02;97966.59;4985500;28;20259;-85
2021/12/20 05:30:09;;;;;;;7.30;3.45;;;;;;;8.48;59.77;97968.56;4972339;28;20155;-85
2021/12/20 05:32:35;;;;;;;8.20;3.88;;;;;;;8.53;60.11;97966.13;4959553;28;20675;-85
2021/12/20 05:35:00;;;;;;;5.40;3.45;;;;;;;8.49;60.23;97957.19;4995559;28;20640;-88
2021/12/20 05:37:26;;;;;;;5.15;2.83;;;;;;;8.56;60.15;97964.94;4981900;28;20190;-85
2021/12/20 05:39:52;;;;;;;6.65;3.70;;;;;;;8.55;60.22;97968.53;4992075;28;20268;-85
2021/12/20 05:42:17;;;;;;;14.82;9.65;;;;;;;8.51;59.98;97968.16;4964761;28;20171;-85
2021/12/20 05:44:43;;;;;;;10.20;6.93;;;;;;;8.51;60.06;97975.16;4978240;28;20176;-85
2021/12/20 05:47:08;;;;;;;7.78;4.57;;;;;;;8.49;60.01;97980.56;4978330;28;20167;-85
2021/12/20 05:49:33;;;;;;;7.75;4.43;;;;;;;8.50;60.00;97978.75;4958584;28;20177;-85
2021/12/20 05:52:02;;;;;;;7.57;4.47;;;;;;;8.51;59.97;97988.91;4980310;28;20280;-85
2021/12/20 05:54:28;;;;;;;8.68;4.85;;;;;;;8.53;59.88;97992.09;4973445;28;20630;-85
2021/12/20 05:56:54;;;;;;;9.10;5.60;;;;;;;8.44;59.76;97973.38;4956103;28;20163;-85
2021/12/20 05:59:19;;;;;;;7.68;4.88;;;;;;;8.40;59.35;97982.56;4952776;28;20650;-85
2021/12/20 06:01:44;;;;;;;5.47;2.88;;;;;;;8.45;58.79;97984.59;4961825;28;20202;-85
2021/12/20 06:04:10;;;;;;;25.13;14.85;;;;;;;8.40;59.13;97990.38;4944995;28;20247;-85
2021/12/20 06:06:35;;;;;;;20.35;10.80;;;;;;;8.48;58.98;97994.53;4955153;28;20434;-85
2021/12/20 06:09:00;;;;;;;15.52;9.40;;;;;;;8.51;59.44;97994.09;4969408;28;20171;-85
2021/12/20 06:11:26;;;;;;;14.18;9.10;;;;;;;8.54;59.36;97991.09;4967988;28;20171;-85
2021/12/20 06:13:52;;;;;;;9.60;6.18;;;;;;;8.47;59.55;97994.75;4946427;28;20339;-85
2021/12/20 06:16:18;;;;;;;9.73;5.47;;;;;;;8.46;59.12;97991.34;4950880;28;20807;-85
2021/12/20 06:18:43;;;;;;;8.18;5.13;;;;;;;8.50;59.09;97984.75;4967811;28;20171;-85
2021/12/20 06:21:09;;;;;;;5.65;3.65;;;;;;;8.53;59.02;97991.31;4972960;28;20271;-85
2021/12/20 06:23:34;;;;;;;6.22;2.90;;;;;;;8.47;58.91;97997.34;4952284;28;20181;-84
2021/12/20 06:25:59;;;;;;;6.35;2.90;;;;;;;8.52;59.50;97989.72;4951180;28;20186;-85
2021/12/20 06:28:25;;;;;;;6.82;3.55;;;;;;;8.54;59.21;97993.69;4958283;28;20655;-85
2021/12/20 06:30:50;;;;;;;5.85;3.20;;;;;;;8.52;59.52;97995.72;4969090;28;20097;-85
2021/12/20 06:33:16;;;;;;;5.80;2.50;;;;;;;8.51;59.25;97993.31;4970303;28;20620;-85
2021/12/20 06:35:41;;;;;;;10.80;4.43;;;;;;;8.47;59.71;98000.72;4972882;28;20189;-85
2021/12/20 06:38:08;;;;;;;10.65;4.45;;;;;;;8.46;59.92;98004.31;4971722;28;20185;-85
2021/12/20 06:40:34;;;;;;;16.33;9.30;;;;;;;8.43;59.70;98005.56;4954574;28;20193;-85
2021/12/20 06:43:00;;;;;;;12.27;6.85;;;;;;;8.41;59.85;97998.94;4979342;28;20185;-85
2021/12/20 06:45:29;;;;;;;11.10;6.47;;;;;;;8.41;59.45;97999.75;4999973;28;20322;-85
2021/12/20 06:47:55;;;;;;;11.13;6.35;;;;;;;8.42;59.99;97997.94;4964786;28;20194;-85
2021/12/20 06:50:20;;;;;;;8.90;4.60;;;;;;;8.47;59.82;97997.34;4981090;28;20287;-85
2021/12/20 06:52:46;;;;;;;8.52;5.10;;;;;;;8.44;59.45;97998.56;4989323;28;20647;-85
2021/12/20 06:55:11;;;;;;;8.60;5.50;;;;;;;8.32;59.31;97990.59;4972591;28;20195;-84
2021/12/20 06:57:36;;;;;;;7.75;4.72;;;;;;;8.35;59.10;97994.59;4979966;28;20258;-85
2021/12/20 07:00:03;;;;;;;6.97;3.97;;;;;;;8.37;59.69;97998.56;4988413;28;20623;-85
2021/12/20 07:02:29;;;;;;;7.28;4.28;;;;;;;8.44;59.36;98001.94;4976233;28;20200;-85
2021/12/20 07:04:54;;;;;;;10.60;5.25;;;;;;;8.43;59.51;98002.13;4968850;28;20166;-85
2021/12/20 07:07:20;;;;;;;10.60;5.57;;;;;;;8.41;59.57;97999.75;4983528;28;20190;-85
2021/12/20 07:09:45;;;;;;;12.27;6.28;;;;;;;8.37;59.19;98006.34;4969658;28;20136;-85
2021/12/20 07:12:10;;;;;;;9.65;5.45;;;;;;;8.41;59.48;98006.72;4977414;28;20213;-85
2021/12/20 07:14:37;;;;;;;11.02;5.78;;;;;;;8.36;59.63;98006.56;4970650;28;20185;-85
2021/12/20 07:17:03;;;;;;;23.33;9.48;;;;;;;8.30;59.08;98008.19;4990220;28;20329;-85
2021/12/20 07:19:28;;;;;;;14.38;6.32;;;;;;;8.32;59.15;98019.16;4978469;28;20152;-85
2021/12/20 07:21:53;;;;;;;16.10;7.78;;;;;;;8.33;59.41;98022.53;4965713;28;20262;-85
2021/12/20 07:24:19;;;;;;;16.42;7.07;;;;;;;8.30;59.58;98028.94;4986703;28;20255;-85
2021/12/20 07:26:44;;;;;;;14.65;6.45;;;;;;;8.27;59.75;98026.75;4986801;28;20276;-85
2021/12/20 07:29:10;;;;;;;15.73;8.02;;;;;;;8.29;59.84;98032.53;4988919;28;20656;-85
2021/12/20 07:31:36;;;;;;;10.45;6.07;;;;;;;8.28;60.03;98024.94;4985919;28;20185;-85
2021/12/20 07:34:01;;;;;;;11.48;6.70;;;;;;;8.17;60.12;98014.22;4966221;28;20340;-85
2021/12/20 07:36:27;;;;;;;8.93;5.82;;;;;;;8.27;60.43;98029.34;4960801;28;20170;-85
2021/12/20 07:38:52;;;;;;;9.10;5.25;;;;;;;8.29;60.27;98023.97;4969237;28;20225;-85
2021/12/20 07:41:19;;;;;;;8.52;4.85;;;;;;;8.31;60.52;98022.75;4982077;28;20261;-85
2021/12/20 07:43:44;;;;;;;9.20;4.15;;;;;;;8.34;60.38;98019.72;4980872;28;20237;-85
2021/12/20 07:46:10;;;;;;;9.70;6.00;;;;;;;8.35;60.62;98029.13;5006285;28;20288;-85
2021/12/20 07:48:35;;;;;;;17.48;8.40;;;;;;;8.36;60.52;98038.50;4977370;28;20187;-85
2021/12/20 07:51:01;;;;;;;16.25;7.13;;;;;;;8.33;60.61;98028.53;5005442;28;20195;-85
2021/12/20 07:53:27;;;;;;;12.43;6.57;;;;;;;8.33;60.06;98031.13;4960869;28;20730;-85
2021/12/20 07:55:52;;;;;;;13.75;5.75;;;;;;;8.29;60.64;98027.34;4967542;28;20197;-85
2021/12/20 07:58:18;;;;;;;9.10;4.70;;;;;;;8.33;60.82;98031.13;4988380;28;20212;-85
2021/12/20 08:00:43;;;;;;;7.75;3.70;;;;;;;8.35;60.35;98025.75;4982045;28;20179;-85
2021/12/20 08:03:09;;;;;;;7.15;4.03;;;;;;;8.31;60.71;98030.56;4964128;28;20212;-85
2021/12/20 08:05:35;;;;;;;5.85;3.47;;;;;;;8.19;61.03;98019.22;4994999;28;20637;-85
2021/12/20 08:08:00;;;;;;;8.48;3.80;;;;;;;8.34;61.04;98031.91;4960203;28;20183;-85
2021/12/20 08:10:27;;;;;;;17.02;6.93;;;;;;;8.33;60.50;98038.91;4996573;28;20260;-85
2021/12/20 08:12:53;;;;;;;14.13;7.63;;;;;;;8.37;60.68;98029.69;4981657;28;20637;-85
2021/12/20 08:15:21;;;;;;;18.20;9.23;;;;;;;8.33;60.21;98028.53;4988909;28;20174;-85
2021/12/20 08:17:47;;;;;;;10.13;5.78;;;;;;;8.31;60.71;98030.56;4978107;28;20618;-85
2021/12/20 08:20:12;;;;;;;22.88;12.07;;;;;;;8.37;60.56;98036.69;4981689;28;20157;-85
2021/12/20 08:22:39;;;;;;;39.72;18.92;;;;;;;8.36;60.56;98037.69;4955537;28;20282;-85
2021/12/20 08:25:05;;;;;;;38.20;18.30;;;;;;;8.34;60.20;98040.50;4992030;28;20260;-85
2021/12/20 08:27:31;;;;;;;31.67;16.00;;;;;;;8.25;61.20;98026.97;4964794;28;20320;-85
2021/12/20 08:29:56;;;;;;;11.82;5.57;;;;;;;8.31;61.17;98038.34;4977483;28;20299;-85
2021/12/20 08:32:22;;;;;;;7.90;4.68;;;;;;;8.31;60.94;98047.91;4976659;28;20178;-85
2021/12/20 08:34:47;;;;;;;8.13;5.00;;;;;;;8.32;61.19;98058.06;4979075;28;20649;-85
2021/12/20 08:37:13;;;;;;;13.63;6.95;;;;;;;8.20;61.25;98044.16;4978489;28;20217;-84
2021/12/20 08:39:38;;;;;;;9.07;4.88;;;;;;;8.21;61.12;98053.56;4963553;28;20157;-84
2021/12/20 08:42:04;;;;;;;9.30;3.58;;;;;;;8.12;60.78;98047.78;4957553;28;20627;-84
2021/12/20 08:44:30;;;;;;;8.50;3.22;;;;;;;8.18;60.52;98048.78;4983133;28;20242;-84
2021/12/20 08:46:58;;;;;;;7.45;3.38;;;;;;;8.21;60.50;98061.34;4979247;28;20179;-87
2021/12/20 08:49:23;;;;;;;5.32;2.88;;;;;;;8.11;60.47;98061.75;4969012;28;20162;-84
2021/12/20 08:51:49;;;;;;;5.38;2.30;;;;;;;8.09;60.69;98057.78;5000986;28;20194;-84
2021/12/20 08:54:15;;;;;;;7.40;3.15;;;;;;;8.15;60.95;98062.16;4976531;28;20375;-84
2021/12/20 08:56:41;;;;;;;6.90;3.03;;;;;;;8.24;60.30;98066.09;4951688;28;20331;-84
2021/12/20 08:59:06;;;;;;;8.45;3.42;;;;;;;8.34;60.61;98066.44;4964963;28;20718;-85
2021/12/20 09:01:32;;;;;;;7.97;3.35;;;;;;;8.33;60.16;98067.47;4997620;28;20185;-84
2021/12/20 09:03:59;;;;;;;9.88;3.38;;;;;;;8.20;60.58;98055.31;4967422;28;20195;-84
2021/12/20 09:06:25;;;;;;;7.60;2.97;;;;;;;8.25;60.23;98065.09;4968538;28;20271;-84
2021/12/20 09:08:54;;;;;;;5.93;3.35;;;;;;;8.19;60.57;98058.13;4956383;28;20195;-84
2021/12/20 09:11:23;;;;;;;8.75;3.40;;;;;;;8.14;60.37;98066.53;4991479;28;20185;-85
2021/12/20 09:13:50;;;;;;;10.90;3.88;;;;;;;8.21;60.85;98069.13;4950524;28;20335;-85
2021/12/20 09:16:15;;;;;;;17.25;6.60;;;;;;;8.09;60.39;98062.97;4977793;28;20207;-84
2021/12/20 09:18:41;;;;;;;15.35;5.85;;;;;;;7.85;61.34;98073.03;4959421;28;20167;-83
2021/12/20 09:21:09;;;;;;;9.65;3.75;;;;;;;7.56;61.78;98067.31;4972884;28;20280;-84
2021/12/20 09:23:35;;;;;;;7.80;3.33;;;;;;;8.11;61.24;98081.72;4967202;28;20336;-85
2021/12/20 09:26:00;;;;;;;7.68;2.53;;;;;;;8.09;60.76;98079.34;4997374;28;20199;-84
2021/12/20 09:28:26;;;;;;;6.18;3.67;;;;;;;8.09;60.91;98079.34;4977903;28;20283;-84
2021/12/20 09:30:51;;;;;;;9.93;4.22;;;;;;;7.99;60.76;98079.75;4953210;28;20597;-84
2021/12/20 09:33:17;;;;;;;7.88;3.20;;;;;;;8.14;60.61;98091.66;4975945;28;20258;-85
2021/12/20 09:35:42;;;;;;;11.23;3.97;;;;;;;8.09;60.90;98078.53;4987548;28;20268;-84
2021/12/20 09:38:11;;;;;;;9.73;2.70;;;;;;;8.16;59.91;98092.28;4981446;28;20183;-85
2021/12/20 09:40:40;;;;;;;5.80;2.70;;;;;;;8.01;60.45;98088.13;4969180;28;20704;-84
2021/12/20 09:43:13;;;;;;;13.15;3.65;;;;;;;8.23;60.40;98093.06;4982358;28;20162;-84
2021/12/20 09:45:43;;;;;;;7.93;3.38;;;;;;;8.37;60.02;98086.00;4990570;28;20167;-84
2021/12/20 09:48:09;;;;;;;7.00;2.92;;;;;;;8.64;59.67;98089.28;4954024;28;20124;-84
2021/12/20 09:50:34;;;;;;;7.85;3.78;;;;;;;8.54;59.60;98086.34;4963516;28;20636;-85
2021/12/20 09:53:04;;;;;;;8.85;3.08;;;;;;;8.61;59.37;98087.09;4974119;28;20325;-85
2021/12/20 09:55:31;;;;;;;9.80;2.88;;;;;;;8.59;59.19;98078.72;4980648;28;20365;-85
2021/12/20 09:57:59;;;;;;;8.20;3.22;;;;;;;8.55;58.96;98082.72;4972450;28;20200;-85
2021/12/20 10:00:25;;;;;;;8.63;3.90;;;;;;;8.88;58.80;98081.75;5002847;28;20393;-85
2021/12/20 10:02:50;;;;;;;12.45;3.67;;;;;;;8.72;58.71;98080.44;5003508;28;20882;-85
2021/12/20 10:05:17;;;;;;;9.45;2.63;;;;;;;8.50;58.75;98082.56;4988681;28;20351;-84
2021/12/20 10:07:48;;;;;;;7.35;2.50;;;;;;;8.54;58.29;98091.53;5006002;28;20145;-84
2021/12/20 10:10:34;;;;;;;10.13;3.33;;;;;;;8.25;58.49;98080.66;4984207;28;20166;-85
2021/12/20 10:13:00;;;;;;;9.38;2.60;;;;;;;8.56;58.81;98076.53;4980090;28;20061;-85
2021/12/20 10:15:31;;;;;;;9.27;2.08;;;;;;;8.47;57.92;98090.78;4973415;28;20225;-85
2021/12/20 10:17:59;;;;;;;8.82;2.13;;;;;;;8.70;57.13;98080.63;4973011;28;20157;-84
2021/12/20 10:20:33;;;;;;;5.57;2.13;;;;;;;8.14;57.64;98083.88;4989819;28;20193;-84
2021/12/20 10:23:15;;;;;;;6.43;2.00;;;;;;;8.42;57.44;98092.19;4976060;28;20283;-84
2021/12/20 10:25:42;;;;;;;11.15;2.92;;;;;;;8.30;57.52;98074.88;5005000;28;20105;-84
2021/12/20 10:28:19;;;;;;;10.43;2.55;;;;;;;8.09;57.32;98087.13;4970312;28;20573;-83
2021/12/20 10:30:50;;;;;;;7.13;1.95;;;;;;;8.24;56.58;98079.06;4968768;28;20235;-83
2021/12/20 10:33:18;;;;;;;5.03;2.00;;;;;;;8.38;55.93;98074.59;4995785;28;20198;-84
2021/12/20 10:35:52;;;;;;;8.70;2.55;;;;;;;8.17;56.58;98062.72;4988428;28;20285;-84
2021/12/20 10:38:18;;;;;;;5.00;1.75;;;;;;;8.17;56.39;98081.69;4990975;28;20602;-85
2021/12/20 10:41:00;;;;;;;7.63;2.20;;;;;;;8.29;55.68;98073.25;4989475;28;20258;-84
2021/12/20 10:43:29;;;;;;;10.20;2.00;;;;;;;8.73;55.50;98075.03;4989622;28;20200;-84
2021/12/20 10:45:56;;;;;;;7.95;1.83;;;;;;;8.59;55.58;98070.94;4983290;28;20192;-85
2021/12/20 10:48:21;;;;;;;7.90;1.77;;;;;;;8.76;55.03;98064.22;5014430;28;20790;-84
2021/12/20 10:50:47;;;;;;;6.25;1.83;;;;;;;8.38;55.86;98066.81;4988437;28;20276;-85
2021/12/20 10:53:24;;;;;;;17.65;5.05;;;;;;;7.98;55.77;98070.38;5004687;28;20354;-85
2021/12/20 10:55:59;;;;;;;5.78;2.20;;;;;;;7.89;55.77;98071.63;5003439;28;20176;-85
2021/12/20 10:58:29;;;;;;;7.78;1.42;;;;;;;8.22;55.03;98073.28;4997455;28;20200;-85
2021/12/20 11:01:17;;;;;;;6.05;1.83;;;;;;;7.98;55.24;98062.59;5007993;28;20494;-84
2021/12/20 11:03:45;;;;;;;5.25;1.88;;;;;;;8.18;54.98;98067.72;4998787;28;20627;-84
2021/12/20 11:11:24;;;;;;;5.10;2.15;;;;;;;8.22;54.68;98060.31;4991460;28;20283;-84
2021/12/20 11:13:49;;;;;;;6.70;2.80;;;;;;;8.28;53.86;98058.69;4979177;28;20286;-86
2021/12/20 11:16:28;;;;;;;5.95;1.60;;;;;;;8.38;53.35;98061.63;4976008;28;20541;-85
2021/12/20 11:19:12;;;;;;;6.53;1.67;;;;;;;8.54;53.36;98062.97;5020052;28;20282;-85
2021/12/20 11:21:45;;;;;;;5.40;1.70;;;;;;;8.65;52.65;98062.31;5006394;28;20572;-85
2021/12/20 11:24:12;;;;;;;11.02;2.30;;;;;;;8.68;52.84;98048.91;4989429;28;20246;-87
2021/12/20 11:26:39;;;;;;;7.22;1.70;;;;;;;8.55;52.39;98057.59;4969349;28;20263;-85
2021/12/20 11:29:04;;;;;;;5.57;1.75;;;;;;;8.38;52.75;98057.25;5003581;28;20271;-85
2021/12/20 11:31:32;;;;;;;5.72;1.27;;;;;;;8.11;52.76;98051.41;4977326;28;20617;-86
2021/12/20 11:34:02;;;;;;;6.07;1.35;;;;;;;8.21;52.15;98058.75;4980430;28;20315;-84
2021/12/20 11:36:27;;;;;;;6.95;1.95;;;;;;;8.43;52.49;98059.22;4988010;28;20302;-84
2021/12/20 11:38:53;;;;;;;7.78;2.25;;;;;;;8.17;52.71;98065.31;4972001;28;20719;-86
2021/12/20 11:41:19;;;;;;;5.53;2.08;;;;;;;8.39;52.98;98052.84;4977099;28;20178;-85
2021/12/20 11:43:47;;;;;;;7.88;2.17;;;;;;;8.17;52.96;98062.72;5004560;28;20295;-85
2021/12/20 11:46:14;;;;;;;6.60;1.60;;;;;;;8.02;52.73;98058.63;4984143;28;20267;-85
2021/12/20 11:48:40;;;;;;;5.43;2.22;;;;;;;8.12;53.37;98057.38;5000392;28;20208;-85
2021/12/20 11:51:05;;;;;;;7.28;2.40;;;;;;;8.10;52.78;98060.16;4982099;28;20200;-85
2021/12/20 11:53:35;;;;;;;7.30;1.67;;;;;;;8.02;53.24;98058.63;4979684;28;20616;-85
2021/12/20 11:56:01;;;;;;;7.00;1.75;;;;;;;7.99;53.17;98053.03;4980379;28;20270;-85
2021/12/20 11:58:32;;;;;;;5.10;1.98;;;;;;;8.09;53.14;98055.19;4987523;28;20189;-85